Time,TemperatureF,DewpointF,PressureIn,WindDirection,WindDirectionDegrees,WindSpeedMPH,WindSpeedGustMPH,Humidity,HourlyPrecipIn,Conditions,Clouds,dailyrainin,SoftwareType,DateUTC
2013-03-13 00:04:00,70.1,65.7,30.01,WNW,294,2.0,4.0,86,0.00,,,0.00,Wunderground v.1.15,2013-03-13 04:04:00,
2013-03-13 00:14:00,70.0,65.6,30.01,WNW,290,4.0,4.0,86,0.00,,,0.00,Wunderground v.1.15,2013-03-13 04:14:00,
2013-03-13 00:24:00,70.0,66.0,30.01,West,281,3.0,3.0,87,0.00,,,0.00,Wunderground v.1.15,2013-03-13 04:24:00,
2013-03-13 00:34:00,69.9,65.9,30.01,West,259,2.0,4.0,87,0.00,,,0.00,Wunderground v.1.15,2013-03-13 04:34:00,
2013-03-13 00:44:00,69.7,65.7,30.01,WNW,295,2.0,3.0,87,0.00,,,0.00,Wunderground v.1.15,2013-03-13 04:44:00,
2013-03-13 00:54:00,69.7,65.7,30.01,WSW,257,2.0,2.0,87,0.00,,,0.00,Wunderground v.1.15,2013-03-13 04:54:00,
2013-03-13 01:04:00,69.7,65.7,30.01,West,268,2.0,2.0,87,0.00,,,0.00,Wunderground v.1.15,2013-03-13 05:04:00,
2013-03-13 01:14:00,69.8,65.8,30.01,West,268,2.0,3.0,87,0.00,,,0.00,Wunderground v.1.15,2013-03-13 05:14:00,
2013-03-13 01:24:00,69.5,65.5,30.01,West,278,5.0,5.0,87,0.00,,,0.00,Wunderground v.1.15,2013-03-13 05:24:00,
2013-03-13 01:34:00,69.3,65.6,30.01,WNW,287,5.0,5.0,88,0.00,,,0.00,Wunderground v.1.15,2013-03-13 05:34:00,
2013-03-13 01:44:00,69.0,65.3,30.02,WSW,255,4.0,4.0,88,0.00,,,0.00,Wunderground v.1.15,2013-03-13 05:44:00,
2013-03-13 01:54:00,68.6,64.9,30.01,West,270,5.0,5.0,88,0.00,,,0.00,Wunderground v.1.15,2013-03-13 05:54:00,
2013-03-13 02:04:00,67.9,64.2,30.01,West,273,6.0,6.0,88,0.00,,,0.00,Wunderground v.1.15,2013-03-13 06:04:00,
2013-03-13 02:14:00,67.4,63.7,30.01,NW,309,7.0,7.0,88,0.00,,,0.00,Wunderground v.1.15,2013-03-13 06:14:00,
2013-03-13 02:24:00,67.1,63.4,30.01,West,260,6.0,6.0,88,0.00,,,0.00,Wunderground v.1.15,2013-03-13 06:24:00,
2013-03-13 02:34:00,66.9,63.2,30.01,WNW,298,6.0,6.0,88,0.00,,,0.00,Wunderground v.1.15,2013-03-13 06:34:00,
2013-03-13 02:44:00,66.5,62.8,30.00,WNW,298,6.0,8.0,88,0.00,,,0.00,Wunderground v.1.15,2013-03-13 06:44:00,
2013-03-13 02:54:00,66.1,62.8,30.00,WNW,293,7.0,7.0,89,0.00,,,0.00,Wunderground v.1.15,2013-03-13 06:54:00,
2013-03-13 03:04:00,65.7,62.4,30.00,WNW,287,7.0,8.0,89,0.00,,,0.00,Wunderground v.1.15,2013-03-13 07:04:00,
2013-03-13 03:14:00,65.3,62.0,30.00,NW,309,4.0,4.0,89,0.00,,,0.00,Wunderground v.1.15,2013-03-13 07:14:00,
2013-03-13 03:24:00,64.8,61.2,29.99,NW,307,5.0,12.0,88,0.00,,,0.00,Wunderground v.1.15,2013-03-13 07:24:00,
2013-03-13 03:34:00,64.5,60.5,29.99,NW,304,6.0,11.0,87,0.00,,,0.00,Wunderground v.1.15,2013-03-13 07:34:00,
2013-03-13 03:44:00,64.3,60.3,29.99,WNW,294,5.0,5.0,87,0.00,,,0.00,Wunderground v.1.15,2013-03-13 07:44:00,
2013-03-13 03:54:00,64.1,60.5,29.99,WNW,290,3.0,5.0,88,0.00,,,0.00,Wunderground v.1.15,2013-03-13 07:54:00,
2013-03-13 04:04:00,63.8,60.2,30.00,WNW,300,5.0,8.0,88,0.00,,,0.00,Wunderground v.1.15,2013-03-13 08:04:00,
2013-03-13 04:14:00,63.4,59.5,30.00,NW,311,6.0,6.0,87,0.00,,,0.00,Wunderground v.1.15,2013-03-13 08:14:00,
2013-03-13 04:24:00,62.6,59.0,30.00,NW,304,8.0,8.0,88,0.00,,,0.00,Wunderground v.1.15,2013-03-13 08:24:00,
2013-03-13 04:34:00,62.2,58.6,30.01,NW,319,5.0,5.0,88,0.00,,,0.00,Wunderground v.1.15,2013-03-13 08:34:00,
2013-03-13 04:44:00,61.4,57.8,30.01,WNW,300,8.0,8.0,88,0.00,,,0.00,Wunderground v.1.15,2013-03-13 08:44:00,
2013-03-13 04:54:00,60.9,57.6,30.01,WNW,298,8.0,8.0,89,0.00,,,0.00,Wunderground v.1.15,2013-03-13 08:54:00,
2013-03-13 05:04:00,60.3,56.7,30.01,NNW,346,7.0,7.0,88,0.00,,,0.00,Wunderground v.1.15,2013-03-13 09:04:00,
2013-03-13 05:14:00,59.9,56.3,30.01,NW,304,6.0,6.0,88,0.00,,,0.00,Wunderground v.1.15,2013-03-13 09:14:00,
2013-03-13 05:24:00,59.6,56.4,30.01,NW,312,5.0,5.0,89,0.00,,,0.00,Wunderground v.1.15,2013-03-13 09:24:00,
2013-03-13 05:34:00,59.2,56.0,30.01,NNW,331,3.0,3.0,89,0.00,,,0.00,Wunderground v.1.15,2013-03-13 09:34:00,
2013-03-13 05:44:00,58.9,55.7,30.01,NW,314,4.0,5.0,89,0.00,,,0.00,Wunderground v.1.15,2013-03-13 09:44:00,
2013-03-13 05:54:00,58.7,55.8,30.02,NW,314,5.0,5.0,90,0.00,,,0.00,Wunderground v.1.15,2013-03-13 09:54:00,
2013-03-13 06:04:00,58.5,55.6,30.02,NW,311,4.0,4.0,90,0.00,,,0.00,Wunderground v.1.15,2013-03-13 10:04:00,
2013-03-13 06:14:00,58.6,56.0,30.03,NNW,338,6.0,6.0,91,0.00,,,0.00,Wunderground v.1.15,2013-03-13 10:14:00,
2013-03-13 06:24:00,58.3,55.7,30.03,NNW,348,4.0,4.0,91,0.00,,,0.00,Wunderground v.1.15,2013-03-13 10:24:00,
2013-03-13 06:34:00,58.2,55.6,30.04,NNW,330,5.0,9.0,91,0.00,,,0.00,Wunderground v.1.15,2013-03-13 10:34:00,
2013-03-13 06:44:00,57.9,55.3,30.04,NW,326,6.0,6.0,91,0.00,,,0.00,Wunderground v.1.15,2013-03-13 10:44:00,
2013-03-13 06:54:00,57.6,55.0,30.05,NNW,340,5.0,5.0,91,0.00,,,0.00,Wunderground v.1.15,2013-03-13 10:54:00,
2013-03-13 07:04:00,57.3,54.7,30.05,NNW,344,6.0,6.0,91,0.00,,,0.00,Wunderground v.1.15,2013-03-13 11:04:00,
2013-03-13 07:14:00,57.3,54.7,30.05,NW,319,5.0,7.0,91,0.00,,,0.00,Wunderground v.1.15,2013-03-13 11:14:00,
2013-03-13 07:24:00,57.2,54.6,30.05,North,352,5.0,5.0,91,0.00,,,0.00,Wunderground v.1.15,2013-03-13 11:24:00,
2013-03-13 07:34:00,57.2,54.6,30.06,NW,318,4.0,4.0,91,0.00,,,0.00,Wunderground v.1.15,2013-03-13 11:34:00,
2013-03-13 07:44:00,57.0,54.4,30.06,NNW,342,4.0,5.0,91,0.00,,,0.00,Wunderground v.1.15,2013-03-13 11:44:00,
2013-03-13 07:54:00,57.0,54.4,30.06,NNE,20,3.0,3.0,91,0.00,,,0.00,Wunderground v.1.15,2013-03-13 11:54:00,
2013-03-13 08:04:00,57.0,54.7,30.06,NW,326,4.0,4.0,92,0.00,,,0.00,Wunderground v.1.15,2013-03-13 12:04:00,
2013-03-13 08:14:00,57.0,54.7,30.07,WNW,295,3.0,3.0,92,0.00,,,0.00,Wunderground v.1.15,2013-03-13 12:14:00,
2013-03-13 08:24:00,57.1,54.8,30.07,West,280,3.0,3.0,92,0.00,,,0.00,Wunderground v.1.15,2013-03-13 12:24:00,
2013-03-13 08:34:00,57.1,54.5,30.07,WNW,295,5.0,6.0,91,0.00,,,0.00,Wunderground v.1.15,2013-03-13 12:34:00,
2013-03-13 08:44:00,57.1,54.5,30.08,NNW,330,5.0,5.0,91,0.00,,,0.00,Wunderground v.1.15,2013-03-13 12:44:00,
2013-03-13 08:54:00,57.3,54.4,30.08,NNE,22,6.0,6.0,90,0.00,,,0.00,Wunderground v.1.15,2013-03-13 12:54:00,
2013-03-13 09:04:00,57.6,54.4,30.08,WNW,295,5.0,6.0,89,0.00,,,0.00,Wunderground v.1.15,2013-03-13 13:04:00,
2013-03-13 09:14:00,58.3,54.8,30.09,NW,309,6.0,7.0,88,0.00,,,0.00,Wunderground v.1.15,2013-03-13 13:14:00,
2013-03-13 09:24:00,58.7,54.8,30.09,NNW,342,6.0,9.0,87,0.00,,,0.00,Wunderground v.1.15,2013-03-13 13:24:00,
2013-03-13 09:34:00,59.3,55.1,30.10,NNW,342,5.0,6.0,86,0.00,,,0.00,Wunderground v.1.15,2013-03-13 13:34:00,
2013-03-13 09:44:00,59.8,55.3,30.10,NNW,333,5.0,5.0,85,0.00,,,0.00,Wunderground v.1.15,2013-03-13 13:44:00,
2013-03-13 09:54:00,60.5,55.3,30.10,NNW,342,5.0,5.0,83,0.00,,,0.00,Wunderground v.1.15,2013-03-13 13:54:00,
2013-03-13 10:04:00,61.1,55.6,30.10,NW,323,5.0,7.0,82,0.00,,,0.00,Wunderground v.1.15,2013-03-13 14:04:00,
2013-03-13 10:14:00,61.3,55.4,30.10,NNW,342,6.0,6.0,81,0.00,,,0.00,Wunderground v.1.15,2013-03-13 14:14:00,
2013-03-13 10:24:00,62.0,55.8,30.11,NE,49,6.0,6.0,80,0.00,,,0.00,Wunderground v.1.15,2013-03-13 14:24:00,
2013-03-13 10:34:00,62.7,56.4,30.11,NW,320,6.0,6.0,80,0.00,,,0.00,Wunderground v.1.15,2013-03-13 14:34:00,
2013-03-13 10:44:00,63.8,57.2,30.11,NW,326,6.0,8.0,79,0.00,,,0.00,Wunderground v.1.15,2013-03-13 14:44:00,
2013-03-13 10:54:00,64.7,57.3,30.11,North,351,6.0,6.0,77,0.00,,,0.00,Wunderground v.1.15,2013-03-13 14:54:00,
2013-03-13 11:04:00,65.8,57.7,30.12,NNE,15,5.0,5.0,75,0.00,,,0.00,Wunderground v.1.15,2013-03-13 15:04:00,
2013-03-13 11:14:00,66.6,58.1,30.12,NNW,346,6.0,6.0,74,0.00,,,0.00,Wunderground v.1.15,2013-03-13 15:14:00,
2013-03-13 11:24:00,67.3,58.3,30.12,NW,312,6.0,6.0,73,0.00,,,0.00,Wunderground v.1.15,2013-03-13 15:24:00,
2013-03-13 11:34:00,67.8,58.8,30.12,NW,314,7.0,7.0,73,0.00,,,0.00,Wunderground v.1.15,2013-03-13 15:34:00,
2013-03-13 11:44:00,68.4,58.6,30.12,NNW,332,6.0,9.0,71,0.00,,,0.00,Wunderground v.1.15,2013-03-13 15:44:00,
2013-03-13 11:54:00,69.0,58.8,30.12,North,359,7.0,9.0,70,0.00,,,0.00,Wunderground v.1.15,2013-03-13 15:54:00,
2013-03-13 12:04:00,69.4,59.2,30.12,NE,51,7.0,7.0,70,0.00,,,0.00,Wunderground v.1.15,2013-03-13 16:04:00,
2013-03-13 12:14:00,69.9,58.9,30.12,NNE,32,6.0,6.0,68,0.00,,,0.00,Wunderground v.1.15,2013-03-13 16:14:00,
2013-03-13 12:24:00,70.3,58.8,30.12,NNE,19,7.0,7.0,67,0.00,,,0.00,Wunderground v.1.15,2013-03-13 16:24:00,
2013-03-13 12:34:00,70.2,57.9,30.12,NE,40,9.0,9.0,65,0.00,,,0.00,Wunderground v.1.15,2013-03-13 16:34:00,
2013-03-13 12:44:00,70.8,58.0,30.11,NNW,344,8.0,8.0,64,0.00,,,0.00,Wunderground v.1.15,2013-03-13 16:44:00,
2013-03-13 12:54:00,71.3,57.6,30.11,North,350,7.0,10.0,62,0.00,,,0.00,Wunderground v.1.15,2013-03-13 16:54:00,
2013-03-13 13:04:00,72.0,57.4,30.11,NW,317,8.0,8.0,60,0.00,,,0.00,Wunderground v.1.15,2013-03-13 17:04:00,
2013-03-13 13:14:00,72.8,57.6,30.10,NNW,329,6.0,6.0,59,0.00,,,0.00,Wunderground v.1.15,2013-03-13 17:14:00,
2013-03-13 13:24:00,72.4,57.3,30.10,NNW,332,8.0,9.0,59,0.00,,,0.00,Wunderground v.1.15,2013-03-13 17:24:00,
2013-03-13 13:34:00,73.3,57.1,30.10,NNW,335,8.0,11.0,57,0.00,,,0.00,Wunderground v.1.15,2013-03-13 17:34:00,
2013-03-13 13:44:00,73.1,57.4,30.10,West,281,10.0,10.0,58,0.00,,,0.00,Wunderground v.1.15,2013-03-13 17:44:00,
2013-03-13 13:54:00,72.7,57.1,30.09,NE,54,9.0,9.0,58,0.00,,,0.00,Wunderground v.1.15,2013-03-13 17:54:00,
2013-03-13 14:04:00,72.7,55.6,30.09,NNE,16,8.0,10.0,55,0.00,,,0.00,Wunderground v.1.15,2013-03-13 18:04:00,
2013-03-13 14:14:00,73.3,55.6,30.08,North,359,9.0,9.0,54,0.00,,,0.00,Wunderground v.1.15,2013-03-13 18:14:00,
2013-03-13 14:24:00,73.6,54.4,30.08,NNW,342,9.0,10.0,51,0.00,,,0.00,Wunderground v.1.15,2013-03-13 18:24:00,
2013-03-13 14:34:00,74.2,56.0,30.08,North,6,9.0,13.0,53,0.00,,,0.00,Wunderground v.1.15,2013-03-13 18:34:00,
2013-03-13 14:44:00,73.6,54.4,30.08,ENE,65,10.0,15.0,51,0.00,,,0.00,Wunderground v.1.15,2013-03-13 18:44:00,
2013-03-13 14:54:00,73.8,54.5,30.08,NNE,25,9.0,10.0,51,0.00,,,0.00,Wunderground v.1.15,2013-03-13 18:54:00,
2013-03-13 15:04:00,73.4,54.7,30.07,ENE,58,10.0,10.0,52,0.00,,,0.00,Wunderground v.1.15,2013-03-13 19:04:00,
2013-03-13 15:14:00,73.9,58.2,30.07,NE,54,9.0,9.0,58,0.00,,,0.00,Wunderground v.1.15,2013-03-13 19:14:00,
2013-03-13 15:24:00,72.6,57.0,30.07,NE,54,10.0,16.0,58,0.00,,,0.00,Wunderground v.1.15,2013-03-13 19:24:00,
2013-03-13 15:34:00,73.0,55.9,30.07,NE,54,10.0,10.0,55,0.00,,,0.00,Wunderground v.1.15,2013-03-13 19:34:00,
2013-03-13 15:44:00,73.4,54.2,30.07,North,9,9.0,11.0,51,0.00,,,0.00,Wunderground v.1.15,2013-03-13 19:44:00,
2013-03-13 15:54:00,71.8,54.8,30.07,NE,51,12.0,12.0,55,0.00,,,0.00,Wunderground v.1.15,2013-03-13 19:54:00,
2013-03-13 16:04:00,71.7,55.7,30.07,NE,43,10.0,18.0,57,0.00,,,0.00,Wunderground v.1.15,2013-03-13 20:04:00,
2013-03-13 16:14:00,71.3,57.2,30.07,East,79,11.0,11.0,61,0.00,,,0.00,Wunderground v.1.15,2013-03-13 20:14:00,
2013-03-13 16:24:00,71.2,56.6,30.06,ENE,60,10.0,13.0,60,0.00,,,0.00,Wunderground v.1.15,2013-03-13 20:24:00,
2013-03-13 16:34:00,71.0,57.8,30.06,ENE,70,11.0,11.0,63,0.00,,,0.00,Wunderground v.1.15,2013-03-13 20:34:00,
2013-03-13 16:44:00,70.8,56.7,30.06,NE,51,12.0,15.0,61,0.00,,,0.00,Wunderground v.1.15,2013-03-13 20:44:00,
2013-03-13 16:54:00,70.8,57.1,30.06,NE,34,11.0,11.0,62,0.00,,,0.00,Wunderground v.1.15,2013-03-13 20:54:00,
2013-03-13 17:04:00,70.8,57.1,30.06,NE,53,9.0,9.0,62,0.00,,,0.00,Wunderground v.1.15,2013-03-13 21:04:00,
2013-03-13 17:14:00,70.7,56.1,30.06,NE,34,12.0,14.0,60,0.00,,,0.00,Wunderground v.1.15,2013-03-13 21:14:00,
2013-03-13 17:24:00,70.5,55.0,30.06,ENE,57,11.0,12.0,58,0.00,,,0.00,Wunderground v.1.15,2013-03-13 21:24:00,
2013-03-13 17:34:00,70.1,54.6,30.06,ENE,57,11.0,11.0,58,0.00,,,0.00,Wunderground v.1.15,2013-03-13 21:34:00,
2013-03-13 17:44:00,70.1,55.6,30.06,NE,44,10.0,10.0,60,0.00,,,0.00,Wunderground v.1.15,2013-03-13 21:44:00,
2013-03-13 17:54:00,70.1,55.1,30.06,North,9,9.0,10.0,59,0.00,,,0.00,Wunderground v.1.15,2013-03-13 21:54:00,
2013-03-13 18:04:00,69.8,54.8,30.07,ENE,73,9.0,9.0,59,0.00,,,0.00,Wunderground v.1.15,2013-03-13 22:04:00,
2013-03-13 18:14:00,69.4,54.9,30.07,NE,54,9.0,9.0,60,0.00,,,0.00,Wunderground v.1.15,2013-03-13 22:14:00,
2013-03-13 18:24:00,69.2,55.6,30.07,North,3,9.0,15.0,62,0.00,,,0.00,Wunderground v.1.15,2013-03-13 22:24:00,
2013-03-13 18:34:00,69.0,55.0,30.07,ENE,77,9.0,9.0,61,0.00,,,0.00,Wunderground v.1.15,2013-03-13 22:34:00,
2013-03-13 18:44:00,69.1,53.2,30.08,NE,36,8.0,9.0,57,0.00,,,0.00,Wunderground v.1.15,2013-03-13 22:44:00,
2013-03-13 18:53:00,69.0,49.0,30.08,NNE,24,8.0,8.0,49,0.00,,,0.00,Wunderground v.1.15,2013-03-13 22:53:00,
2013-03-13 19:04:00,69.0,46.2,30.08,North,11,7.0,10.0,44,0.00,,,0.00,Wunderground v.1.15,2013-03-13 23:04:00,
2013-03-13 19:14:00,68.4,46.8,30.08,ENE,73,8.0,8.0,46,0.00,,,0.00,Wunderground v.1.15,2013-03-13 23:14:00,
2013-03-13 19:24:00,67.8,47.9,30.08,NE,47,6.0,6.0,49,0.00,,,0.00,Wunderground v.1.15,2013-03-13 23:24:00,
2013-03-13 19:34:00,67.4,48.6,30.08,NNW,346,7.0,10.0,51,0.00,,,0.00,Wunderground v.1.15,2013-03-13 23:34:00,
2013-03-13 19:44:00,67.1,49.4,30.08,NNE,21,5.0,5.0,53,0.00,,,0.00,Wunderground v.1.15,2013-03-13 23:44:00,
2013-03-13 19:54:00,66.7,49.5,30.08,North,9,3.0,4.0,54,0.00,,,0.00,Wunderground v.1.15,2013-03-13 23:54:00,
2013-03-13 20:04:00,66.4,50.7,30.08,NNE,16,4.0,4.0,57,0.00,,,0.00,Wunderground v.1.15,2013-03-14 00:04:00,
2013-03-13 20:24:00,65.7,50.5,30.09,NNE,23,3.0,3.0,58,0.00,,,0.00,Wunderground v.1.15,2013-03-14 00:24:00,
2013-03-13 20:34:00,65.4,51.1,30.10,NW,321,3.0,3.0,60,0.00,,,0.00,Wunderground v.1.15,2013-03-14 00:34:00,
2013-03-13 20:44:00,64.9,51.6,30.10,North,4,3.0,3.0,62,0.00,,,0.00,Wunderground v.1.15,2013-03-14 00:44:00,
2013-03-13 20:54:00,64.7,51.8,30.10,NW,317,2.0,2.0,63,0.00,,,0.00,Wunderground v.1.15,2013-03-14 00:54:00,
2013-03-13 21:03:00,64.3,51.9,30.10,North,5,2.0,2.0,64,0.00,,,0.00,Wunderground v.1.15,2013-03-14 01:03:00,
2013-03-13 21:14:00,64.1,52.1,30.11,North,350,2.0,2.0,65,0.00,,,0.00,Wunderground v.1.15,2013-03-14 01:14:00,
2013-03-13 21:24:00,63.7,52.1,30.11,NNW,342,1.0,1.0,66,0.00,,,0.00,Wunderground v.1.15,2013-03-14 01:24:00,
2013-03-13 21:34:00,63.3,52.2,30.11,NNW,346,1.0,1.0,67,0.00,,,0.00,Wunderground v.1.15,2013-03-14 01:34:00,
2013-03-13 21:44:00,63.2,52.1,30.11,NW,312,0.0,0.0,67,0.00,,,0.00,Wunderground v.1.15,2013-03-14 01:44:00,
2013-03-13 21:54:00,62.9,51.8,30.12,NW,304,0.0,0.0,67,0.00,,,0.00,Wunderground v.1.15,2013-03-14 01:54:00,
2013-03-13 22:04:00,62.6,51.9,30.12,WNW,294,1.0,1.0,68,0.00,,,0.00,Wunderground v.1.15,2013-03-14 02:04:00,
2013-03-13 22:14:00,62.6,51.5,30.13,NW,311,2.0,2.0,67,0.00,,,0.00,Wunderground v.1.15,2013-03-14 02:14:00,
2013-03-13 22:24:00,62.5,51.8,30.13,NW,308,2.0,2.0,68,0.00,,,0.00,Wunderground v.1.15,2013-03-14 02:24:00,
2013-03-13 22:34:00,62.2,51.9,30.13,NW,314,1.0,1.0,69,0.00,,,0.00,Wunderground v.1.15,2013-03-14 02:34:00,
2013-03-13 22:44:00,61.9,52.0,30.13,NW,314,1.0,1.0,70,0.00,,,0.00,Wunderground v.1.15,2013-03-14 02:44:00,
2013-03-13 22:54:00,61.8,51.9,30.14,NW,326,2.0,2.0,70,0.00,,,0.00,Wunderground v.1.15,2013-03-14 02:54:00,
2013-03-13 23:04:00,61.3,51.8,30.13,NNW,338,1.0,1.0,71,0.00,,,0.00,Wunderground v.1.15,2013-03-14 03:04:00,
2013-03-13 23:14:00,60.9,52.2,30.13,NNW,336,0.0,1.0,73,0.00,,,0.00,Wunderground v.1.15,2013-03-14 03:14:00,
2013-03-13 23:24:00,60.8,52.1,30.13,NNW,338,1.0,1.0,73,0.00,,,0.00,Wunderground v.1.15,2013-03-14 03:24:00,
2013-03-13 23:34:00,60.6,52.3,30.14,NNW,338,0.0,0.0,74,0.00,,,0.00,Wunderground v.1.15,2013-03-14 03:34:00,
2013-03-13 23:44:00,60.4,52.4,30.14,NW,319,0.0,0.0,75,0.00,,,0.00,Wunderground v.1.15,2013-03-14 03:44:00,
2013-03-13 23:54:00,60.3,52.3,30.14,NW,321,0.0,0.0,75,0.00,,,0.00,Wunderground v.1.15,2013-03-14 03:54:00,